sensor_id;sensor_type;location;lat;lon;timestamp;P1;durP1;ratioP1;P2;durP2;ratioP2
21492;SDS011;10908;50.690;4.400;2022-07-23T00:00:46;24.20;;;13.45;;
21492;SDS011;10908;50.690;4.400;2022-07-23T00:03:12;18.85;;;12.18;;
21492;SDS011;10908;50.690;4.400;2022-07-23T00:05:38;19.02;;;12.85;;
21492;SDS011;10908;50.690;4.400;2022-07-23T00:08:04;21.30;;;12.38;;
21492;SDS011;10908;50.690;4.400;2022-07-23T00:10:31;17.00;;;11.88;;
21492;SDS011;10908;50.690;4.400;2022-07-23T00:12:58;21.10;;;12.82;;
21492;SDS011;10908;50.690;4.400;2022-07-23T00:15:23;18.60;;;12.43;;
21492;SDS011;10908;50.690;4.400;2022-07-23T00:17:49;20.67;;;12.88;;
21492;SDS011;10908;50.690;4.400;2022-07-23T00:20:15;20.88;;;12.65;;
21492;SDS011;10908;50.690;4.400;2022-07-23T00:22:50;20.35;;;13.85;;
21492;SDS011;10908;50.690;4.400;2022-07-23T00:25:17;20.90;;;13.48;;
21492;SDS011;10908;50.690;4.400;2022-07-23T00:27:44;24.63;;;14.52;;
21492;SDS011;10908;50.690;4.400;2022-07-23T00:30:10;20.85;;;13.63;;
21492;SDS011;10908;50.690;4.400;2022-07-23T00:32:46;19.45;;;12.93;;
21492;SDS011;10908;50.690;4.400;2022-07-23T00:35:12;26.30;;;15.07;;
21492;SDS011;10908;50.690;4.400;2022-07-23T00:37:38;22.65;;;14.35;;
21492;SDS011;10908;50.690;4.400;2022-07-23T00:40:04;24.88;;;15.25;;
21492;SDS011;10908;50.690;4.400;2022-07-23T00:42:31;23.98;;;14.55;;
21492;SDS011;10908;50.690;4.400;2022-07-23T00:44:57;23.88;;;15.15;;
21492;SDS011;10908;50.690;4.400;2022-07-23T00:47:23;23.98;;;15.75;;
21492;SDS011;10908;50.690;4.400;2022-07-23T00:49:48;24.08;;;15.13;;
21492;SDS011;10908;50.690;4.400;2022-07-23T00:52:14;24.52;;;16.77;;
21492;SDS011;10908;50.690;4.400;2022-07-23T00:54:40;27.90;;;17.13;;
21492;SDS011;10908;50.690;4.400;2022-07-23T00:57:06;28.90;;;16.42;;
21492;SDS011;10908;50.690;4.400;2022-07-23T00:59:33;24.20;;;15.95;;
21492;SDS011;10908;50.690;4.400;2022-07-23T01:01:59;25.25;;;16.02;;
21492;SDS011;10908;50.690;4.400;2022-07-23T01:04:24;25.42;;;16.33;;
21492;SDS011;10908;50.690;4.400;2022-07-23T01:06:50;24.83;;;15.77;;
21492;SDS011;10908;50.690;4.400;2022-07-23T01:09:16;24.23;;;16.42;;
21492;SDS011;10908;50.690;4.400;2022-07-23T01:11:41;24.98;;;16.15;;
21492;SDS011;10908;50.690;4.400;2022-07-23T01:14:11;26.75;;;16.08;;
21492;SDS011;10908;50.690;4.400;2022-07-23T01:16:38;28.23;;;16.33;;
21492;SDS011;10908;50.690;4.400;2022-07-23T01:19:05;27.08;;;16.92;;
21492;SDS011;10908;50.690;4.400;2022-07-23T01:21:39;25.75;;;15.93;;
21492;SDS011;10908;50.690;4.400;2022-07-23T01:24:06;22.63;;;15.52;;
21492;SDS011;10908;50.690;4.400;2022-07-23T01:26:33;26.85;;;16.27;;
21492;SDS011;10908;50.690;4.400;2022-07-23T01:28:59;24.42;;;15.63;;
21492;SDS011;10908;50.690;4.400;2022-07-23T01:31:24;26.20;;;16.48;;
21492;SDS011;10908;50.690;4.400;2022-07-23T01:33:50;27.48;;;16.17;;
21492;SDS011;10908;50.690;4.400;2022-07-23T01:36:16;27.25;;;16.95;;
21492;SDS011;10908;50.690;4.400;2022-07-23T01:38:41;24.80;;;16.42;;
21492;SDS011;10908;50.690;4.400;2022-07-23T01:41:07;27.02;;;16.83;;
21492;SDS011;10908;50.690;4.400;2022-07-23T01:43:33;26.67;;;16.70;;
21492;SDS011;10908;50.690;4.400;2022-07-23T01:45:58;26.40;;;16.70;;
21492;SDS011;10908;50.690;4.400;2022-07-23T01:48:24;24.88;;;15.77;;
21492;SDS011;10908;50.690;4.400;2022-07-23T01:50:50;23.30;;;15.25;;
21492;SDS011;10908;50.690;4.400;2022-07-23T01:53:16;25.48;;;16.02;;
21492;SDS011;10908;50.690;4.400;2022-07-23T01:55:42;29.50;;;16.00;;
21492;SDS011;10908;50.690;4.400;2022-07-23T01:58:08;26.27;;;16.23;;
21492;SDS011;10908;50.690;4.400;2022-07-23T02:00:34;26.40;;;15.85;;
21492;SDS011;10908;50.690;4.400;2022-07-23T02:03:00;23.08;;;15.63;;
21492;SDS011;10908;50.690;4.400;2022-07-23T02:05:26;26.38;;;15.48;;
21492;SDS011;10908;50.690;4.400;2022-07-23T02:07:53;22.90;;;15.43;;
21492;SDS011;10908;50.690;4.400;2022-07-23T02:10:20;26.58;;;15.63;;
21492;SDS011;10908;50.690;4.400;2022-07-23T02:12:46;24.95;;;16.30;;
21492;SDS011;10908;50.690;4.400;2022-07-23T02:15:12;26.52;;;15.98;;
21492;SDS011;10908;50.690;4.400;2022-07-23T02:17:37;23.52;;;15.98;;
21492;SDS011;10908;50.690;4.400;2022-07-23T02:20:03;26.33;;;16.10;;
21492;SDS011;10908;50.690;4.400;2022-07-23T02:22:30;24.00;;;16.00;;
21492;SDS011;10908;50.690;4.400;2022-07-23T02:24:56;25.90;;;16.38;;
21492;SDS011;10908;50.690;4.400;2022-07-23T02:27:21;26.48;;;16.00;;
21492;SDS011;10908;50.690;4.400;2022-07-23T02:29:48;24.42;;;15.80;;
21492;SDS011;10908;50.690;4.400;2022-07-23T02:32:14;22.60;;;14.88;;
21492;SDS011;10908;50.690;4.400;2022-07-23T02:34:39;26.58;;;15.98;;
21492;SDS011;10908;50.690;4.400;2022-07-23T02:37:05;23.63;;;15.55;;
21492;SDS011;10908;50.690;4.400;2022-07-23T02:39:31;25.50;;;16.25;;
21492;SDS011;10908;50.690;4.400;2022-07-23T02:41:56;23.42;;;15.57;;
21492;SDS011;10908;50.690;4.400;2022-07-23T02:44:22;27.40;;;16.35;;
21492;SDS011;10908;50.690;4.400;2022-07-23T02:46:47;27.02;;;16.05;;
21492;SDS011;10908;50.690;4.400;2022-07-23T02:49:13;25.63;;;16.17;;
21492;SDS011;10908;50.690;4.400;2022-07-23T02:51:39;28.80;;;16.58;;
21492;SDS011;10908;50.690;4.400;2022-07-23T02:54:04;27.77;;;15.95;;
21492;SDS011;10908;50.690;4.400;2022-07-23T02:56:30;27.73;;;16.48;;
21492;SDS011;10908;50.690;4.400;2022-07-23T02:58:56;25.23;;;16.60;;
21492;SDS011;10908;50.690;4.400;2022-07-23T03:01:21;25.35;;;15.75;;
21492;SDS011;10908;50.690;4.400;2022-07-23T03:03:47;26.23;;;16.48;;
21492;SDS011;10908;50.690;4.400;2022-07-23T03:06:13;25.40;;;16.00;;
21492;SDS011;10908;50.690;4.400;2022-07-23T03:08:38;27.63;;;15.65;;
21492;SDS011;10908;50.690;4.400;2022-07-23T03:11:04;23.48;;;15.35;;
21492;SDS011;10908;50.690;4.400;2022-07-23T03:13:35;22.60;;;15.07;;
21492;SDS011;10908;50.690;4.400;2022-07-23T03:16:05;26.02;;;15.45;;
21492;SDS011;10908;50.690;4.400;2022-07-23T03:18:31;26.58;;;15.68;;
21492;SDS011;10908;50.690;4.400;2022-07-23T03:20:57;22.95;;;14.30;;
21492;SDS011;10908;50.690;4.400;2022-07-23T03:23:23;22.90;;;14.50;;
21492;SDS011;10908;50.690;4.400;2022-07-23T03:25:49;22.95;;;14.20;;
21492;SDS011;10908;50.690;4.400;2022-07-23T03:28:15;22.60;;;13.75;;
21492;SDS011;10908;50.690;4.400;2022-07-23T03:30:42;23.02;;;14.45;;
21492;SDS011;10908;50.690;4.400;2022-07-23T03:33:11;21.90;;;14.60;;
21492;SDS011;10908;50.690;4.400;2022-07-23T03:35:44;23.17;;;14.10;;
21492;SDS011;10908;50.690;4.400;2022-07-23T03:38:11;20.67;;;14.18;;
21492;SDS011;10908;50.690;4.400;2022-07-23T03:40:37;21.77;;;13.60;;
21492;SDS011;10908;50.690;4.400;2022-07-23T03:43:03;20.48;;;14.25;;
21492;SDS011;10908;50.690;4.400;2022-07-23T03:45:29;23.30;;;14.55;;
21492;SDS011;10908;50.690;4.400;2022-07-23T03:47:55;22.17;;;14.02;;
21492;SDS011;10908;50.690;4.400;2022-07-23T03:50:20;22.45;;;13.52;;
21492;SDS011;10908;50.690;4.400;2022-07-23T03:52:46;23.25;;;14.63;;
21492;SDS011;10908;50.690;4.400;2022-07-23T03:55:12;23.55;;;15.15;;
21492;SDS011;10908;50.690;4.400;2022-07-23T03:57:38;23.75;;;14.43;;
21492;SDS011;10908;50.690;4.400;2022-07-23T04:00:05;23.45;;;15.45;;
21492;SDS011;10908;50.690;4.400;2022-07-23T04:02:32;19.83;;;13.85;;
21492;SDS011;10908;50.690;4.400;2022-07-23T04:04:58;20.73;;;14.10;;
21492;SDS011;10908;50.690;4.400;2022-07-23T04:07:25;21.92;;;14.20;;
21492;SDS011;10908;50.690;4.400;2022-07-23T04:09:50;22.23;;;14.63;;
21492;SDS011;10908;50.690;4.400;2022-07-23T04:12:16;22.88;;;14.82;;
21492;SDS011;10908;50.690;4.400;2022-07-23T04:14:42;23.48;;;14.43;;
21492;SDS011;10908;50.690;4.400;2022-07-23T04:17:07;21.13;;;13.07;;
21492;SDS011;10908;50.690;4.400;2022-07-23T04:19:33;21.77;;;14.00;;
21492;SDS011;10908;50.690;4.400;2022-07-23T04:22:00;23.13;;;14.35;;
21492;SDS011;10908;50.690;4.400;2022-07-23T04:24:26;22.83;;;14.73;;
21492;SDS011;10908;50.690;4.400;2022-07-23T04:26:51;22.60;;;13.95;;
21492;SDS011;10908;50.690;4.400;2022-07-23T04:29:18;21.80;;;13.75;;
21492;SDS011;10908;50.690;4.400;2022-07-23T04:31:43;22.60;;;14.50;;
21492;SDS011;10908;50.690;4.400;2022-07-23T04:34:09;21.17;;;14.07;;
21492;SDS011;10908;50.690;4.400;2022-07-23T04:36:35;20.98;;;12.80;;
21492;SDS011;10908;50.690;4.400;2022-07-23T04:39:00;21.42;;;13.45;;
21492;SDS011;10908;50.690;4.400;2022-07-23T04:41:26;24.33;;;14.82;;
21492;SDS011;10908;50.690;4.400;2022-07-23T04:43:51;22.45;;;14.55;;
21492;SDS011;10908;50.690;4.400;2022-07-23T04:46:17;21.48;;;13.30;;
21492;SDS011;10908;50.690;4.400;2022-07-23T04:48:43;19.88;;;12.68;;
21492;SDS011;10908;50.690;4.400;2022-07-23T04:51:09;19.15;;;12.20;;
21492;SDS011;10908;50.690;4.400;2022-07-23T04:53:36;18.95;;;12.57;;
21492;SDS011;10908;50.690;4.400;2022-07-23T04:56:03;17.50;;;11.32;;
21492;SDS011;10908;50.690;4.400;2022-07-23T04:58:29;18.75;;;12.73;;
21492;SDS011;10908;50.690;4.400;2022-07-23T05:00:56;18.38;;;12.40;;
21492;SDS011;10908;50.690;4.400;2022-07-23T05:03:22;19.42;;;12.27;;
21492;SDS011;10908;50.690;4.400;2022-07-23T05:05:48;19.30;;;12.55;;
21492;SDS011;10908;50.690;4.400;2022-07-23T05:08:14;18.55;;;12.55;;
21492;SDS011;10908;50.690;4.400;2022-07-23T05:10:40;21.35;;;12.63;;
21492;SDS011;10908;50.690;4.400;2022-07-23T05:13:06;16.35;;;11.35;;
21492;SDS011;10908;50.690;4.400;2022-07-23T05:15:31;17.75;;;12.23;;
21492;SDS011;10908;50.690;4.400;2022-07-23T05:17:57;19.02;;;11.80;;
21492;SDS011;10908;50.690;4.400;2022-07-23T05:20:23;20.42;;;12.02;;
21492;SDS011;10908;50.690;4.400;2022-07-23T05:22:49;19.70;;;12.70;;
21492;SDS011;10908;50.690;4.400;2022-07-23T05:25:15;20.27;;;12.07;;
21492;SDS011;10908;50.690;4.400;2022-07-23T05:27:40;20.05;;;12.18;;
21492;SDS011;10908;50.690;4.400;2022-07-23T05:30:06;19.25;;;11.85;;
21492;SDS011;10908;50.690;4.400;2022-07-23T05:32:32;15.65;;;11.25;;
21492;SDS011;10908;50.690;4.400;2022-07-23T05:34:58;20.63;;;12.07;;
21492;SDS011;10908;50.690;4.400;2022-07-23T05:37:24;20.42;;;12.98;;
21492;SDS011;10908;50.690;4.400;2022-07-23T05:39:50;18.63;;;11.98;;
21492;SDS011;10908;50.690;4.400;2022-07-23T05:42:16;18.13;;;12.32;;
21492;SDS011;10908;50.690;4.400;2022-07-23T05:44:41;20.85;;;12.50;;
21492;SDS011;10908;50.690;4.400;2022-07-23T05:47:07;22.15;;;12.98;;
21492;SDS011;10908;50.690;4.400;2022-07-23T05:49:33;21.25;;;13.05;;
21492;SDS011;10908;50.690;4.400;2022-07-23T05:51:58;20.38;;;13.50;;
21492;SDS011;10908;50.690;4.400;2022-07-23T05:54:29;21.42;;;12.68;;
21492;SDS011;10908;50.690;4.400;2022-07-23T05:56:54;18.50;;;12.63;;
21492;SDS011;10908;50.690;4.400;2022-07-23T05:59:20;20.63;;;12.30;;
21492;SDS011;10908;50.690;4.400;2022-07-23T06:01:45;22.33;;;12.25;;
21492;SDS011;10908;50.690;4.400;2022-07-23T06:04:11;19.85;;;12.68;;
21492;SDS011;10908;50.690;4.400;2022-07-23T06:06:37;22.95;;;13.00;;
21492;SDS011;10908;50.690;4.400;2022-07-23T06:09:02;20.63;;;13.02;;
21492;SDS011;10908;50.690;4.400;2022-07-23T06:11:28;18.08;;;12.55;;
21492;SDS011;10908;50.690;4.400;2022-07-23T06:13:54;20.95;;;13.05;;
21492;SDS011;10908;50.690;4.400;2022-07-23T06:16:20;21.30;;;13.23;;
21492;SDS011;10908;50.690;4.400;2022-07-23T06:18:45;21.73;;;13.90;;
21492;SDS011;10908;50.690;4.400;2022-07-23T06:21:11;23.10;;;12.93;;
21492;SDS011;10908;50.690;4.400;2022-07-23T06:23:37;21.77;;;12.45;;
21492;SDS011;10908;50.690;4.400;2022-07-23T06:26:02;18.70;;;12.43;;
21492;SDS011;10908;50.690;4.400;2022-07-23T06:28:28;18.13;;;12.43;;
21492;SDS011;10908;50.690;4.400;2022-07-23T06:30:53;19.58;;;12.25;;
21492;SDS011;10908;50.690;4.400;2022-07-23T06:33:19;17.67;;;11.85;;
21492;SDS011;10908;50.690;4.400;2022-07-23T06:35:45;16.17;;;10.80;;
21492;SDS011;10908;50.690;4.400;2022-07-23T06:38:10;19.67;;;12.32;;
21492;SDS011;10908;50.690;4.400;2022-07-23T06:40:36;17.38;;;10.93;;
21492;SDS011;10908;50.690;4.400;2022-07-23T06:43:02;19.55;;;12.48;;
21492;SDS011;10908;50.690;4.400;2022-07-23T06:45:27;20.08;;;12.82;;
21492;SDS011;10908;50.690;4.400;2022-07-23T06:47:53;20.35;;;13.02;;
21492;SDS011;10908;50.690;4.400;2022-07-23T06:50:19;20.92;;;13.68;;
21492;SDS011;10908;50.690;4.400;2022-07-23T06:52:44;20.70;;;13.65;;
21492;SDS011;10908;50.690;4.400;2022-07-23T06:55:10;22.70;;;14.18;;
21492;SDS011;10908;50.690;4.400;2022-07-23T06:57:36;22.15;;;14.98;;
21492;SDS011;10908;50.690;4.400;2022-07-23T07:00:02;26.77;;;15.18;;
21492;SDS011;10908;50.690;4.400;2022-07-23T07:02:28;22.50;;;15.13;;
21492;SDS011;10908;50.690;4.400;2022-07-23T07:04:54;20.77;;;13.15;;
21492;SDS011;10908;50.690;4.400;2022-07-23T07:07:21;22.83;;;14.75;;
21492;SDS011;10908;50.690;4.400;2022-07-23T07:09:46;19.58;;;13.60;;
21492;SDS011;10908;50.690;4.400;2022-07-23T07:12:12;23.40;;;13.25;;
21492;SDS011;10908;50.690;4.400;2022-07-23T07:14:38;20.20;;;13.02;;
21492;SDS011;10908;50.690;4.400;2022-07-23T07:17:03;21.45;;;13.27;;
21492;SDS011;10908;50.690;4.400;2022-07-23T07:19:29;20.05;;;12.75;;
21492;SDS011;10908;50.690;4.400;2022-07-23T07:21:55;22.00;;;12.60;;
21492;SDS011;10908;50.690;4.400;2022-07-23T07:24:21;21.83;;;14.07;;
21492;SDS011;10908;50.690;4.400;2022-07-23T07:26:46;18.52;;;12.73;;
21492;SDS011;10908;50.690;4.400;2022-07-23T07:29:12;19.52;;;12.80;;
21492;SDS011;10908;50.690;4.400;2022-07-23T07:31:38;19.38;;;12.80;;
21492;SDS011;10908;50.690;4.400;2022-07-23T07:34:03;22.48;;;12.57;;
21492;SDS011;10908;50.690;4.400;2022-07-23T07:36:29;18.30;;;12.05;;
21492;SDS011;10908;50.690;4.400;2022-07-23T07:38:55;18.30;;;11.75;;
21492;SDS011;10908;50.690;4.400;2022-07-23T07:41:20;21.77;;;13.13;;
21492;SDS011;10908;50.690;4.400;2022-07-23T07:43:49;22.88;;;13.48;;
21492;SDS011;10908;50.690;4.400;2022-07-23T07:46:15;23.30;;;12.90;;
21492;SDS011;10908;50.690;4.400;2022-07-23T07:48:41;22.67;;;13.32;;
21492;SDS011;10908;50.690;4.400;2022-07-23T07:51:07;23.45;;;12.52;;
21492;SDS011;10908;50.690;4.400;2022-07-23T07:53:32;19.80;;;13.35;;
21492;SDS011;10908;50.690;4.400;2022-07-23T07:55:58;19.23;;;12.23;;
21492;SDS011;10908;50.690;4.400;2022-07-23T07:58:24;20.27;;;11.25;;
21492;SDS011;10908;50.690;4.400;2022-07-23T08:00:50;17.60;;;10.73;;
21492;SDS011;10908;50.690;4.400;2022-07-23T08:03:16;14.82;;;9.25;;
21492;SDS011;10908;50.690;4.400;2022-07-23T08:05:42;22.60;;;13.07;;
21492;SDS011;10908;50.690;4.400;2022-07-23T08:08:07;21.58;;;13.18;;
21492;SDS011;10908;50.690;4.400;2022-07-23T08:10:34;19.63;;;11.35;;
21492;SDS011;10908;50.690;4.400;2022-07-23T08:13:00;23.02;;;10.98;;
21492;SDS011;10908;50.690;4.400;2022-07-23T08:15:27;21.27;;;11.75;;
21492;SDS011;10908;50.690;4.400;2022-07-23T08:17:54;19.63;;;11.65;;
21492;SDS011;10908;50.690;4.400;2022-07-23T08:20:20;20.33;;;12.40;;
21492;SDS011;10908;50.690;4.400;2022-07-23T08:22:51;19.45;;;10.25;;
21492;SDS011;10908;50.690;4.400;2022-07-23T08:25:22;18.40;;;9.90;;
21492;SDS011;10908;50.690;4.400;2022-07-23T08:27:52;16.08;;;9.75;;
21492;SDS011;10908;50.690;4.400;2022-07-23T08:30:19;17.70;;;10.15;;
21492;SDS011;10908;50.690;4.400;2022-07-23T08:35:33;16.63;;;8.52;;
21492;SDS011;10908;50.690;4.400;2022-07-23T08:38:01;16.25;;;9.10;;
21492;SDS011;10908;50.690;4.400;2022-07-23T08:40:33;16.35;;;9.23;;
21492;SDS011;10908;50.690;4.400;2022-07-23T08:43:00;14.02;;;7.40;;
21492;SDS011;10908;50.690;4.400;2022-07-23T08:45:37;14.75;;;7.78;;
21492;SDS011;10908;50.690;4.400;2022-07-23T08:48:05;14.52;;;8.13;;
21492;SDS011;10908;50.690;4.400;2022-07-23T08:50:34;15.02;;;8.68;;
21492;SDS011;10908;50.690;4.400;2022-07-23T08:53:01;15.40;;;7.78;;
21492;SDS011;10908;50.690;4.400;2022-07-23T08:55:30;14.68;;;8.90;;
21492;SDS011;10908;50.690;4.400;2022-07-23T08:57:55;15.85;;;8.55;;
21492;SDS011;10908;50.690;4.400;2022-07-23T09:00:21;18.25;;;7.97;;
21492;SDS011;10908;50.690;4.400;2022-07-23T09:02:48;12.45;;;7.20;;
21492;SDS011;10908;50.690;4.400;2022-07-23T09:05:15;12.35;;;7.35;;
21492;SDS011;10908;50.690;4.400;2022-07-23T09:10:29;14.85;;;7.78;;
21492;SDS011;10908;50.690;4.400;2022-07-23T09:12:55;12.10;;;6.68;;
21492;SDS011;10908;50.690;4.400;2022-07-23T09:15:20;13.10;;;6.97;;
21492;SDS011;10908;50.690;4.400;2022-07-23T09:17:46;13.23;;;7.05;;
21492;SDS011;10908;50.690;4.400;2022-07-23T09:20:13;10.70;;;5.78;;
21492;SDS011;10908;50.690;4.400;2022-07-23T09:22:44;15.73;;;7.28;;
21492;SDS011;10908;50.690;4.400;2022-07-23T09:25:15;11.70;;;5.75;;
21492;SDS011;10908;50.690;4.400;2022-07-23T09:30:16;12.48;;;6.38;;
21492;SDS011;10908;50.690;4.400;2022-07-23T09:32:41;13.82;;;6.70;;
21492;SDS011;10908;50.690;4.400;2022-07-23T09:35:07;12.93;;;6.22;;
21492;SDS011;10908;50.690;4.400;2022-07-23T09:37:34;13.77;;;6.72;;
21492;SDS011;10908;50.690;4.400;2022-07-23T09:40:03;11.00;;;6.38;;
21492;SDS011;10908;50.690;4.400;2022-07-23T09:42:33;12.55;;;5.43;;
21492;SDS011;10908;50.690;4.400;2022-07-23T09:44:59;9.88;;;5.70;;
21492;SDS011;10908;50.690;4.400;2022-07-23T09:47:30;12.32;;;6.43;;
21492;SDS011;10908;50.690;4.400;2022-07-23T09:49:57;10.45;;;5.72;;
21492;SDS011;10908;50.690;4.400;2022-07-23T09:52:35;12.32;;;6.40;;
21492;SDS011;10908;50.690;4.400;2022-07-23T09:55:07;13.52;;;6.10;;
21492;SDS011;10908;50.690;4.400;2022-07-23T09:57:33;10.40;;;5.55;;
21492;SDS011;10908;50.690;4.400;2022-07-23T10:00:03;10.00;;;5.95;;
21492;SDS011;10908;50.690;4.400;2022-07-23T10:02:34;9.38;;;4.90;;
21492;SDS011;10908;50.690;4.400;2022-07-23T10:05:01;8.13;;;4.93;;
21492;SDS011;10908;50.690;4.400;2022-07-23T10:07:28;10.75;;;5.13;;
21492;SDS011;10908;50.690;4.400;2022-07-23T10:09:58;10.40;;;4.90;;
21492;SDS011;10908;50.690;4.400;2022-07-23T10:12:25;11.95;;;4.80;;
21492;SDS011;10908;50.690;4.400;2022-07-23T10:14:56;9.10;;;4.40;;
21492;SDS011;10908;50.690;4.400;2022-07-23T10:17:22;9.00;;;4.80;;
21492;SDS011;10908;50.690;4.400;2022-07-23T10:19:47;9.55;;;4.63;;
21492;SDS011;10908;50.690;4.400;2022-07-23T10:22:14;10.98;;;5.07;;
21492;SDS011;10908;50.690;4.400;2022-07-23T10:27:44;9.27;;;4.72;;
21492;SDS011;10908;50.690;4.400;2022-07-23T10:38:43;9.45;;;4.70;;
21492;SDS011;10908;50.690;4.400;2022-07-23T10:41:20;8.70;;;4.25;;
21492;SDS011;10908;50.690;4.400;2022-07-23T10:44:06;6.53;;;4.18;;
21492;SDS011;10908;50.690;4.400;2022-07-23T10:50:17;9.27;;;4.28;;
21492;SDS011;10908;50.690;4.400;2022-07-23T10:57:58;7.68;;;3.47;;
21492;SDS011;10908;50.690;4.400;2022-07-23T11:00:26;7.72;;;3.80;;
21492;SDS011;10908;50.690;4.400;2022-07-23T11:02:54;7.28;;;3.80;;
21492;SDS011;10908;50.690;4.400;2022-07-23T11:05:26;8.65;;;4.57;;
21492;SDS011;10908;50.690;4.400;2022-07-23T11:08:13;8.13;;;3.83;;
21492;SDS011;10908;50.690;4.400;2022-07-23T11:13:29;6.70;;;3.63;;
21492;SDS011;10908;50.690;4.400;2022-07-23T11:16:05;7.47;;;3.42;;
21492;SDS011;10908;50.690;4.400;2022-07-23T11:24:00;7.97;;;4.35;;
21492;SDS011;10908;50.690;4.400;2022-07-23T11:31:57;9.98;;;3.60;;
21492;SDS011;10908;50.690;4.400;2022-07-23T11:34:31;6.88;;;3.60;;
21492;SDS011;10908;50.690;4.400;2022-07-23T11:36:57;8.77;;;3.63;;
21492;SDS011;10908;50.690;4.400;2022-07-23T11:39:24;22.02;;;5.45;;
21492;SDS011;10908;50.690;4.400;2022-07-23T11:41:52;41.75;;;5.70;;
21492;SDS011;10908;50.690;4.400;2022-07-23T11:44:27;13.48;;;4.82;;
21492;SDS011;10908;50.690;4.400;2022-07-23T11:49:23;6.88;;;3.33;;
21492;SDS011;10908;50.690;4.400;2022-07-23T11:54:35;8.10;;;3.42;;
21492;SDS011;10908;50.690;4.400;2022-07-23T11:57:11;8.82;;;4.03;;
21492;SDS011;10908;50.690;4.400;2022-07-23T11:59:36;7.15;;;3.25;;
21492;SDS011;10908;50.690;4.400;2022-07-23T12:02:05;6.70;;;3.55;;
21492;SDS011;10908;50.690;4.400;2022-07-23T12:04:38;10.82;;;3.70;;
21492;SDS011;10908;50.690;4.400;2022-07-23T12:07:08;9.32;;;3.50;;
21492;SDS011;10908;50.690;4.400;2022-07-23T12:10:03;6.45;;;3.28;;
21492;SDS011;10908;50.690;4.400;2022-07-23T12:12:48;7.47;;;3.35;;
21492;SDS011;10908;50.690;4.400;2022-07-23T12:15:39;6.57;;;3.60;;
21492;SDS011;10908;50.690;4.400;2022-07-23T12:18:08;7.20;;;3.33;;
21492;SDS011;10908;50.690;4.400;2022-07-23T12:20:36;7.75;;;3.50;;
21492;SDS011;10908;50.690;4.400;2022-07-23T12:23:04;13.00;;;3.42;;
21492;SDS011;10908;50.690;4.400;2022-07-23T12:25:33;8.35;;;3.45;;
21492;SDS011;10908;50.690;4.400;2022-07-23T12:28:04;23.27;;;13.27;;
21492;SDS011;10908;50.690;4.400;2022-07-23T12:33:03;8.13;;;3.38;;
21492;SDS011;10908;50.690;4.400;2022-07-23T12:35:31;8.40;;;3.75;;
21492;SDS011;10908;50.690;4.400;2022-07-23T12:38:03;6.78;;;4.07;;
21492;SDS011;10908;50.690;4.400;2022-07-23T12:40:41;7.88;;;3.97;;
21492;SDS011;10908;50.690;4.400;2022-07-23T12:43:08;7.03;;;4.10;;
21492;SDS011;10908;50.690;4.400;2022-07-23T12:45:52;9.85;;;4.20;;
21492;SDS011;10908;50.690;4.400;2022-07-23T12:48:23;8.68;;;4.13;;
21492;SDS011;10908;50.690;4.400;2022-07-23T12:50:57;9.52;;;3.40;;
21492;SDS011;10908;50.690;4.400;2022-07-23T12:53:29;6.93;;;3.53;;
21492;SDS011;10908;50.690;4.400;2022-07-23T12:56:03;8.23;;;4.00;;
21492;SDS011;10908;50.690;4.400;2022-07-23T12:58:40;7.65;;;3.80;;
21492;SDS011;10908;50.690;4.400;2022-07-23T13:01:07;8.20;;;3.83;;
21492;SDS011;10908;50.690;4.400;2022-07-23T13:03:40;8.27;;;3.67;;
21492;SDS011;10908;50.690;4.400;2022-07-23T13:06:09;6.72;;;3.55;;
21492;SDS011;10908;50.690;4.400;2022-07-23T13:08:36;9.88;;;3.90;;
21492;SDS011;10908;50.690;4.400;2022-07-23T13:11:04;7.47;;;4.03;;
21492;SDS011;10908;50.690;4.400;2022-07-23T13:13:33;8.20;;;4.15;;
21492;SDS011;10908;50.690;4.400;2022-07-23T13:16:00;9.00;;;3.70;;
21492;SDS011;10908;50.690;4.400;2022-07-23T13:18:27;6.50;;;3.83;;
21492;SDS011;10908;50.690;4.400;2022-07-23T13:20:54;7.75;;;4.00;;
21492;SDS011;10908;50.690;4.400;2022-07-23T13:23:20;9.93;;;3.95;;
21492;SDS011;10908;50.690;4.400;2022-07-23T13:25:46;10.00;;;4.20;;
21492;SDS011;10908;50.690;4.400;2022-07-23T13:28:13;8.98;;;4.03;;
21492;SDS011;10908;50.690;4.400;2022-07-23T13:30:40;9.30;;;3.90;;
21492;SDS011;10908;50.690;4.400;2022-07-23T13:33:06;10.48;;;3.90;;
21492;SDS011;10908;50.690;4.400;2022-07-23T13:35:33;7.53;;;3.90;;
21492;SDS011;10908;50.690;4.400;2022-07-23T13:37:59;7.40;;;3.80;;
21492;SDS011;10908;50.690;4.400;2022-07-23T13:40:25;11.50;;;4.07;;
21492;SDS011;10908;50.690;4.400;2022-07-23T13:42:52;7.65;;;3.40;;
21492;SDS011;10908;50.690;4.400;2022-07-23T13:45:18;8.05;;;3.95;;
21492;SDS011;10908;50.690;4.400;2022-07-23T13:47:44;7.30;;;3.80;;
21492;SDS011;10908;50.690;4.400;2022-07-23T13:50:10;7.22;;;3.70;;
21492;SDS011;10908;50.690;4.400;2022-07-23T13:52:36;10.52;;;3.95;;
21492;SDS011;10908;50.690;4.400;2022-07-23T13:55:02;7.13;;;3.58;;
21492;SDS011;10908;50.690;4.400;2022-07-23T13:57:30;7.03;;;3.63;;
21492;SDS011;10908;50.690;4.400;2022-07-23T13:59:56;9.43;;;3.40;;
21492;SDS011;10908;50.690;4.400;2022-07-23T14:02:22;7.70;;;3.50;;
21492;SDS011;10908;50.690;4.400;2022-07-23T14:04:48;7.22;;;3.67;;
21492;SDS011;10908;50.690;4.400;2022-07-23T14:07:14;6.25;;;3.63;;
21492;SDS011;10908;50.690;4.400;2022-07-23T14:09:39;7.43;;;3.55;;
21492;SDS011;10908;50.690;4.400;2022-07-23T14:12:05;6.78;;;3.50;;
21492;SDS011;10908;50.690;4.400;2022-07-23T14:14:32;6.90;;;3.47;;
21492;SDS011;10908;50.690;4.400;2022-07-23T14:16:57;6.32;;;3.75;;
21492;SDS011;10908;50.690;4.400;2022-07-23T14:19:23;6.60;;;3.70;;
21492;SDS011;10908;50.690;4.400;2022-07-23T14:21:49;6.97;;;3.28;;
21492;SDS011;10908;50.690;4.400;2022-07-23T14:24:15;10.52;;;4.00;;
21492;SDS011;10908;50.690;4.400;2022-07-23T14:26:41;7.20;;;3.70;;
21492;SDS011;10908;50.690;4.400;2022-07-23T14:29:07;6.40;;;3.67;;
21492;SDS011;10908;50.690;4.400;2022-07-23T14:31:33;7.95;;;3.83;;
21492;SDS011;10908;50.690;4.400;2022-07-23T14:33:59;7.40;;;4.00;;
21492;SDS011;10908;50.690;4.400;2022-07-23T14:36:25;9.57;;;4.25;;
21492;SDS011;10908;50.690;4.400;2022-07-23T14:38:51;5.93;;;3.55;;
21492;SDS011;10908;50.690;4.400;2022-07-23T14:41:17;7.80;;;3.92;;
21492;SDS011;10908;50.690;4.400;2022-07-23T14:43:43;7.93;;;4.18;;
21492;SDS011;10908;50.690;4.400;2022-07-23T14:46:09;10.48;;;3.92;;
21492;SDS011;10908;50.690;4.400;2022-07-23T14:48:36;7.85;;;3.80;;
21492;SDS011;10908;50.690;4.400;2022-07-23T14:51:02;9.80;;;3.97;;
21492;SDS011;10908;50.690;4.400;2022-07-23T14:53:27;5.90;;;3.35;;
21492;SDS011;10908;50.690;4.400;2022-07-23T14:55:53;8.05;;;4.10;;
21492;SDS011;10908;50.690;4.400;2022-07-23T14:58:21;7.47;;;3.88;;
21492;SDS011;10908;50.690;4.400;2022-07-23T15:00:50;6.75;;;3.67;;
21492;SDS011;10908;50.690;4.400;2022-07-23T15:03:16;6.68;;;3.85;;
21492;SDS011;10908;50.690;4.400;2022-07-23T15:05:42;8.52;;;4.22;;
21492;SDS011;10908;50.690;4.400;2022-07-23T15:08:08;9.23;;;4.22;;
21492;SDS011;10908;50.690;4.400;2022-07-23T15:10:33;7.38;;;3.90;;
21492;SDS011;10908;50.690;4.400;2022-07-23T15:12:59;11.13;;;4.32;;
21492;SDS011;10908;50.690;4.400;2022-07-23T15:15:24;8.60;;;3.90;;
21492;SDS011;10908;50.690;4.400;2022-07-23T15:17:50;8.35;;;4.20;;
21492;SDS011;10908;50.690;4.400;2022-07-23T15:20:16;5.93;;;3.97;;